Strona główna
METAR-TAF:

METAR-TAF

Lotnisko :

Port lotniczy Dakar

Dakar, Senegal

Szerokość geograficzna: 14-44N, Długość geograficzna: 017-30W, wysokość: 27 m

Aktualna obserwacja pogody

Raport powstał 1 godzina i 15 minut temu, godzina 08:00 UTC
Wiatr 4 kt od wschodnio-północny wschód
Temperatura 19°C
Wilgotność 43%
Ciśnienie 1013 hPa
Widzialność: 6000 m

METAR: GOOY 230800Z 06004KT 6000 NSC 19/06 Q1013

czas: 09:15 (09:15 UTC)

Prognoza

Raport powstał 3 godziny i 45 minut temu, godzina 05:30 UTC
Prognoza ważna od 23 godzina 06 UTC do 24 godzina 12 UTC
Wiatr 12 kt od północny wschód
Widzialność: 8000 m

TAF: GOOY 230530Z 2306/2412 04012KT 8000 NSC

Obserwacja i prognoza pogody dla ponad 4000 lotnisk (raport METAR i TAF).

Dostępne stacje oznaczono żółtymi i czerwonymi punktami na mapie.

Najedź kursorem aby zobaczyć nazwę stacji.

Kliknij aby zobaczyć obserwacje i prognozy pogody.

Aby zmienić mapę: kliknij na zielony przycisk z czarnym krzyżykiem, aby powiększyć; na zielony przycisk z myślnikiem, aby pomniejszyć; na zielone strzałki, aby przejść do map sąsiednich.


METAR-TAF: